sensor_id;sensor_type;location;lat;lon;timestamp;pressure;altitude;pressure_sealevel;temperature;humidity
60817;BME280;51921;51.518;-3.188;2023-11-21T00:00:12;101341.49;;;8.34;100.00
60817;BME280;51921;51.518;-3.188;2023-11-21T00:02:36;101345.96;;;8.10;100.00
60817;BME280;51921;51.518;-3.188;2023-11-21T00:05:02;101341.49;;;8.06;100.00
60817;BME280;51921;51.518;-3.188;2023-11-21T00:07:27;101347.65;;;8.29;100.00
60817;BME280;51921;51.518;-3.188;2023-11-21T00:09:53;101347.15;;;8.29;100.00
60817;BME280;51921;51.518;-3.188;2023-11-21T00:12:18;101349.48;;;8.30;100.00
60817;BME280;51921;51.518;-3.188;2023-11-21T00:14:44;101351.68;;;8.01;100.00
60817;BME280;51921;51.518;-3.188;2023-11-21T00:17:09;101350.95;;;8.08;100.00
60817;BME280;51921;51.518;-3.188;2023-11-21T00:19:35;101353.59;;;7.07;100.00
60817;BME280;51921;51.518;-3.188;2023-11-21T00:22:00;101355.90;;;7.85;100.00
60817;BME280;51921;51.518;-3.188;2023-11-21T00:24:26;101358.35;;;7.80;100.00
60817;BME280;51921;51.518;-3.188;2023-11-21T00:26:51;101358.16;;;8.18;100.00
60817;BME280;51921;51.518;-3.188;2023-11-21T00:29:17;101358.63;;;8.93;100.00
60817;BME280;51921;51.518;-3.188;2023-11-21T00:31:42;101362.41;;;9.14;100.00
60817;BME280;51921;51.518;-3.188;2023-11-21T00:34:08;101360.78;;;8.60;100.00
60817;BME280;51921;51.518;-3.188;2023-11-21T00:36:33;101364.94;;;8.76;100.00
60817;BME280;51921;51.518;-3.188;2023-11-21T00:38:59;101366.20;;;8.75;100.00
60817;BME280;51921;51.518;-3.188;2023-11-21T00:41:24;101369.41;;;8.75;100.00
60817;BME280;51921;51.518;-3.188;2023-11-21T00:43:50;101370.67;;;8.89;100.00
60817;BME280;51921;51.518;-3.188;2023-11-21T00:46:15;101372.43;;;8.37;100.00
60817;BME280;51921;51.518;-3.188;2023-11-21T00:48:41;101372.73;;;8.61;100.00
60817;BME280;51921;51.518;-3.188;2023-11-21T00:51:06;101378.06;;;9.14;100.00
60817;BME280;51921;51.518;-3.188;2023-11-21T00:53:32;101379.01;;;9.84;100.00
60817;BME280;51921;51.518;-3.188;2023-11-21T00:55:57;101386.99;;;7.88;100.00
60817;BME280;51921;51.518;-3.188;2023-11-21T00:58:23;101387.87;;;9.13;100.00
60817;BME280;51921;51.518;-3.188;2023-11-21T01:00:48;101390.95;;;10.73;100.00
60817;BME280;51921;51.518;-3.188;2023-11-21T01:03:13;101394.91;;;9.51;100.00
60817;BME280;51921;51.518;-3.188;2023-11-21T01:05:39;101396.75;;;10.62;100.00
60817;BME280;51921;51.518;-3.188;2023-11-21T01:08:05;101398.67;;;10.89;100.00
60817;BME280;51921;51.518;-3.188;2023-11-21T01:10:30;101409.00;;;9.27;100.00
60817;BME280;51921;51.518;-3.188;2023-11-21T01:12:55;101408.53;;;10.96;100.00
60817;BME280;51921;51.518;-3.188;2023-11-21T01:15:21;101422.28;;;10.30;100.00
60817;BME280;51921;51.518;-3.188;2023-11-21T01:17:47;101423.77;;;9.60;100.00
60817;BME280;51921;51.518;-3.188;2023-11-21T01:20:12;101429.52;;;9.76;100.00
60817;BME280;51921;51.518;-3.188;2023-11-21T01:22:37;101434.80;;;10.07;100.00
60817;BME280;51921;51.518;-3.188;2023-11-21T01:25:03;101439.60;;;9.49;100.00
60817;BME280;51921;51.518;-3.188;2023-11-21T01:27:28;101442.81;;;9.49;100.00
60817;BME280;51921;51.518;-3.188;2023-11-21T01:29:54;101450.25;;;9.52;100.00
60817;BME280;51921;51.518;-3.188;2023-11-21T01:32:19;101454.53;;;9.21;100.00
60817;BME280;51921;51.518;-3.188;2023-11-21T01:34:44;101464.98;;;10.04;100.00
60817;BME280;51921;51.518;-3.188;2023-11-21T01:37:10;101466.79;;;8.77;100.00
60817;BME280;51921;51.518;-3.188;2023-11-21T01:39:35;101475.79;;;8.92;100.00
60817;BME280;51921;51.518;-3.188;2023-11-21T01:42:01;101472.96;;;8.55;100.00
60817;BME280;51921;51.518;-3.188;2023-11-21T01:44:26;101469.79;;;8.39;100.00
60817;BME280;51921;51.518;-3.188;2023-11-21T01:46:52;101470.82;;;8.68;100.00
60817;BME280;51921;51.518;-3.188;2023-11-21T01:49:18;101478.90;;;7.87;100.00
60817;BME280;51921;51.518;-3.188;2023-11-21T01:51:44;101477.68;;;7.10;100.00
60817;BME280;51921;51.518;-3.188;2023-11-21T01:54:08;101481.81;;;9.34;100.00
60817;BME280;51921;51.518;-3.188;2023-11-21T01:56:34;101488.66;;;8.74;100.00
60817;BME280;51921;51.518;-3.188;2023-11-21T01:58:59;101497.94;;;6.40;100.00
60817;BME280;51921;51.518;-3.188;2023-11-21T02:01:25;101497.47;;;6.88;100.00
60817;BME280;51921;51.518;-3.188;2023-11-21T02:03:50;101499.14;;;6.69;100.00
60817;BME280;51921;51.518;-3.188;2023-11-21T02:06:16;101502.58;;;7.50;100.00
60817;BME280;51921;51.518;-3.188;2023-11-21T02:08:41;101503.46;;;8.00;100.00
60817;BME280;51921;51.518;-3.188;2023-11-21T02:11:07;101502.36;;;6.49;100.00
60817;BME280;51921;51.518;-3.188;2023-11-21T02:13:33;101503.89;;;7.33;100.00
60817;BME280;51921;51.518;-3.188;2023-11-21T02:15:58;101514.54;;;7.84;100.00
60817;BME280;51921;51.518;-3.188;2023-11-21T02:18:23;101521.85;;;6.15;100.00
60817;BME280;51921;51.518;-3.188;2023-11-21T02:20:49;101513.08;;;6.94;100.00
60817;BME280;51921;51.518;-3.188;2023-11-21T02:23:14;101512.14;;;6.80;100.00
60817;BME280;51921;51.518;-3.188;2023-11-21T02:25:40;101517.21;;;7.30;100.00
60817;BME280;51921;51.518;-3.188;2023-11-21T02:28:05;101511.73;;;7.06;100.00
60817;BME280;51921;51.518;-3.188;2023-11-21T02:30:31;101508.41;;;6.98;100.00
60817;BME280;51921;51.518;-3.188;2023-11-21T02:32:56;101505.06;;;7.63;100.00
60817;BME280;51921;51.518;-3.188;2023-11-21T02:35:21;101502.93;;;7.19;100.00
60817;BME280;51921;51.518;-3.188;2023-11-21T02:37:47;101505.17;;;9.07;100.00
60817;BME280;51921;51.518;-3.188;2023-11-21T02:40:12;101510.85;;;9.00;100.00
60817;BME280;51921;51.518;-3.188;2023-11-21T02:42:39;101515.32;;;10.13;100.00
60817;BME280;51921;51.518;-3.188;2023-11-21T02:45:04;101511.82;;;9.10;100.00
60817;BME280;51921;51.518;-3.188;2023-11-21T02:47:29;101517.64;;;10.53;100.00
60817;BME280;51921;51.518;-3.188;2023-11-21T02:49:54;101524.87;;;9.71;100.00
60817;BME280;51921;51.518;-3.188;2023-11-21T02:52:19;101529.64;;;10.63;100.00
60817;BME280;51921;51.518;-3.188;2023-11-21T02:54:45;101536.20;;;10.86;100.00
60817;BME280;51921;51.518;-3.188;2023-11-21T02:57:10;101543.85;;;11.31;100.00
60817;BME280;51921;51.518;-3.188;2023-11-21T02:59:36;101555.11;;;10.51;100.00
60817;BME280;51921;51.518;-3.188;2023-11-21T03:02:01;101560.74;;;11.01;100.00
60817;BME280;51921;51.518;-3.188;2023-11-21T03:04:27;101574.13;;;10.62;100.00
60817;BME280;51921;51.518;-3.188;2023-11-21T03:06:52;101578.08;;;9.92;100.00
60817;BME280;51921;51.518;-3.188;2023-11-21T03:09:18;101587.11;;;9.96;100.00
60817;BME280;51921;51.518;-3.188;2023-11-21T03:11:43;101590.17;;;10.48;100.00
60817;BME280;51921;51.518;-3.188;2023-11-21T03:14:08;101590.20;;;7.35;100.00
60817;BME280;51921;51.518;-3.188;2023-11-21T03:16:35;101594.95;;;7.59;100.00
60817;BME280;51921;51.518;-3.188;2023-11-21T03:18:59;101600.66;;;7.26;100.00
60817;BME280;51921;51.518;-3.188;2023-11-21T03:21:25;101603.93;;;7.57;100.00
60817;BME280;51921;51.518;-3.188;2023-11-21T03:23:50;101607.12;;;9.05;100.00
60817;BME280;51921;51.518;-3.188;2023-11-21T03:26:15;101617.58;;;6.53;100.00
60817;BME280;51921;51.518;-3.188;2023-11-21T03:28:41;101619.34;;;7.65;100.00
60817;BME280;51921;51.518;-3.188;2023-11-21T03:31:06;101631.36;;;6.79;100.00
60817;BME280;51921;51.518;-3.188;2023-11-21T03:33:32;101637.76;;;6.20;100.00
60817;BME280;51921;51.518;-3.188;2023-11-21T03:35:57;101640.26;;;6.90;100.00
60817;BME280;51921;51.518;-3.188;2023-11-21T03:38:23;101646.34;;;5.82;100.00
60817;BME280;51921;51.518;-3.188;2023-11-21T03:40:48;101649.49;;;7.45;100.00
60817;BME280;51921;51.518;-3.188;2023-11-21T03:43:14;101647.87;;;7.30;100.00
60817;BME280;51921;51.518;-3.188;2023-11-21T03:45:39;101651.04;;;6.11;100.00
60817;BME280;51921;51.518;-3.188;2023-11-21T03:48:05;101651.91;;;5.50;100.00
60817;BME280;51921;51.518;-3.188;2023-11-21T03:50:30;101656.80;;;5.58;100.00
60817;BME280;51921;51.518;-3.188;2023-11-21T03:52:56;101668.36;;;5.92;100.00
60817;BME280;51921;51.518;-3.188;2023-11-21T03:55:21;101673.70;;;6.05;100.00
60817;BME280;51921;51.518;-3.188;2023-11-21T03:57:47;101673.50;;;5.97;100.00
60817;BME280;51921;51.518;-3.188;2023-11-21T04:00:13;101671.95;;;5.41;100.00
60817;BME280;51921;51.518;-3.188;2023-11-21T04:02:38;101678.39;;;5.85;100.00
60817;BME280;51921;51.518;-3.188;2023-11-21T04:05:04;101676.00;;;5.29;100.00
60817;BME280;51921;51.518;-3.188;2023-11-21T04:07:29;101676.17;;;5.63;100.00
60817;BME280;51921;51.518;-3.188;2023-11-21T04:09:55;101675.10;;;5.13;100.00
60817;BME280;51921;51.518;-3.188;2023-11-21T04:12:20;101681.58;;;4.96;100.00
60817;BME280;51921;51.518;-3.188;2023-11-21T04:14:45;101679.81;;;5.50;100.00
60817;BME280;51921;51.518;-3.188;2023-11-21T04:17:11;101683.97;;;5.43;100.00
60817;BME280;51921;51.518;-3.188;2023-11-21T04:19:36;101693.43;;;4.97;100.00
60817;BME280;51921;51.518;-3.188;2023-11-21T04:22:02;101694.96;;;4.64;100.00
60817;BME280;51921;51.518;-3.188;2023-11-21T04:24:27;101693.27;;;5.24;100.00
60817;BME280;51921;51.518;-3.188;2023-11-21T04:26:53;101696.17;;;4.72;100.00
60817;BME280;51921;51.518;-3.188;2023-11-21T04:29:18;101704.99;;;4.83;100.00
60817;BME280;51921;51.518;-3.188;2023-11-21T04:31:44;101714.06;;;4.99;100.00
60817;BME280;51921;51.518;-3.188;2023-11-21T04:34:09;101718.90;;;5.21;100.00
60817;BME280;51921;51.518;-3.188;2023-11-21T04:36:35;101721.97;;;5.73;100.00
60817;BME280;51921;51.518;-3.188;2023-11-21T04:39:01;101728.34;;;5.52;100.00
60817;BME280;51921;51.518;-3.188;2023-11-21T04:41:26;101740.55;;;5.27;100.00
60817;BME280;51921;51.518;-3.188;2023-11-21T04:43:51;101744.96;;;5.07;100.00
60817;BME280;51921;51.518;-3.188;2023-11-21T04:46:17;101754.29;;;5.12;100.00
60817;BME280;51921;51.518;-3.188;2023-11-21T04:48:42;101757.21;;;5.09;100.00
60817;BME280;51921;51.518;-3.188;2023-11-21T04:51:08;101756.86;;;5.77;100.00
60817;BME280;51921;51.518;-3.188;2023-11-21T04:53:33;101758.60;;;7.55;100.00
60817;BME280;51921;51.518;-3.188;2023-11-21T04:55:59;101763.18;;;6.60;100.00
60817;BME280;51921;51.518;-3.188;2023-11-21T04:58:24;101767.74;;;6.11;100.00
60817;BME280;51921;51.518;-3.188;2023-11-21T05:00:50;101774.91;;;4.56;100.00
60817;BME280;51921;51.518;-3.188;2023-11-21T05:03:15;101779.55;;;6.22;100.00
60817;BME280;51921;51.518;-3.188;2023-11-21T05:05:41;101787.73;;;7.23;100.00
60817;BME280;51921;51.518;-3.188;2023-11-21T05:08:06;101789.94;;;5.69;100.00
60817;BME280;51921;51.518;-3.188;2023-11-21T05:10:32;101788.23;;;6.78;100.00
60817;BME280;51921;51.518;-3.188;2023-11-21T05:12:57;101782.31;;;7.62;100.00
60817;BME280;51921;51.518;-3.188;2023-11-21T05:15:23;101784.14;;;5.49;100.00
60817;BME280;51921;51.518;-3.188;2023-11-21T05:17:48;101789.91;;;5.31;100.00
60817;BME280;51921;51.518;-3.188;2023-11-21T05:20:14;101788.73;;;4.76;100.00
60817;BME280;51921;51.518;-3.188;2023-11-21T05:22:39;101794.44;;;6.23;100.00
60817;BME280;51921;51.518;-3.188;2023-11-21T05:25:06;101796.33;;;8.66;100.00
60817;BME280;51921;51.518;-3.188;2023-11-21T05:27:30;101794.55;;;5.54;100.00
60817;BME280;51921;51.518;-3.188;2023-11-21T05:29:56;101799.90;;;6.77;100.00
60817;BME280;51921;51.518;-3.188;2023-11-21T05:32:21;101807.36;;;5.80;100.00
60817;BME280;51921;51.518;-3.188;2023-11-21T05:34:47;101808.45;;;5.02;100.00
60817;BME280;51921;51.518;-3.188;2023-11-21T05:37:12;101799.93;;;6.56;100.00
60817;BME280;51921;51.518;-3.188;2023-11-21T05:39:38;101807.72;;;5.27;100.00
60817;BME280;51921;51.518;-3.188;2023-11-21T05:42:03;101807.86;;;5.21;100.00
60817;BME280;51921;51.518;-3.188;2023-11-21T05:44:29;101816.51;;;4.48;100.00
60817;BME280;51921;51.518;-3.188;2023-11-21T05:46:54;101821.64;;;5.62;100.00
60817;BME280;51921;51.518;-3.188;2023-11-21T05:49:20;101831.02;;;5.33;100.00
60817;BME280;51921;51.518;-3.188;2023-11-21T05:51:45;101835.94;;;5.88;100.00
60817;BME280;51921;51.518;-3.188;2023-11-21T05:54:11;101846.18;;;6.59;100.00
60817;BME280;51921;51.518;-3.188;2023-11-21T05:56:36;101857.16;;;5.63;100.00
60817;BME280;51921;51.518;-3.188;2023-11-21T05:59:02;101856.37;;;6.91;100.00
60817;BME280;51921;51.518;-3.188;2023-11-21T06:01:27;101856.10;;;6.55;100.00
60817;BME280;51921;51.518;-3.188;2023-11-21T06:03:53;101872.55;;;5.64;100.00
60817;BME280;51921;51.518;-3.188;2023-11-21T06:06:18;101871.97;;;6.49;100.00
60817;BME280;51921;51.518;-3.188;2023-11-21T06:08:44;101876.07;;;6.98;100.00
60817;BME280;51921;51.518;-3.188;2023-11-21T06:11:09;101880.45;;;7.94;100.00
60817;BME280;51921;51.518;-3.188;2023-11-21T06:13:35;101885.78;;;7.06;100.00
60817;BME280;51921;51.518;-3.188;2023-11-21T06:16:00;101880.72;;;7.65;100.00
60817;BME280;51921;51.518;-3.188;2023-11-21T06:18:26;101892.12;;;6.26;100.00
60817;BME280;51921;51.518;-3.188;2023-11-21T06:20:51;101899.41;;;7.38;100.00
60817;BME280;51921;51.518;-3.188;2023-11-21T06:23:17;101901.95;;;7.44;100.00
60817;BME280;51921;51.518;-3.188;2023-11-21T06:25:42;101907.46;;;5.00;100.00
60817;BME280;51921;51.518;-3.188;2023-11-21T06:28:07;101908.42;;;5.05;100.00
60817;BME280;51921;51.518;-3.188;2023-11-21T06:30:33;101914.20;;;5.47;100.00
60817;BME280;51921;51.518;-3.188;2023-11-21T06:32:58;101920.20;;;4.97;100.00
60817;BME280;51921;51.518;-3.188;2023-11-21T06:35:24;101918.45;;;6.95;100.00
60817;BME280;51921;51.518;-3.188;2023-11-21T06:37:49;101921.69;;;5.80;100.00
60817;BME280;51921;51.518;-3.188;2023-11-21T06:40:15;101920.53;;;7.40;100.00
60817;BME280;51921;51.518;-3.188;2023-11-21T06:42:41;101924.74;;;9.06;100.00
60817;BME280;51921;51.518;-3.188;2023-11-21T06:45:07;101928.73;;;7.61;100.00
60817;BME280;51921;51.518;-3.188;2023-11-21T06:47:31;101940.62;;;5.49;100.00
60817;BME280;51921;51.518;-3.188;2023-11-21T06:49:59;101939.61;;;6.48;100.00
60817;BME280;51921;51.518;-3.188;2023-11-21T06:52:22;101944.59;;;6.06;100.00
60817;BME280;51921;51.518;-3.188;2023-11-21T06:54:48;101947.38;;;7.37;100.00
60817;BME280;51921;51.518;-3.188;2023-11-21T06:57:13;101950.83;;;7.33;100.00
60817;BME280;51921;51.518;-3.188;2023-11-21T06:59:39;101946.06;;;7.42;100.00
60817;BME280;51921;51.518;-3.188;2023-11-21T07:02:04;101956.61;;;5.76;100.00
60817;BME280;51921;51.518;-3.188;2023-11-21T07:04:30;101959.31;;;5.14;100.00
60817;BME280;51921;51.518;-3.188;2023-11-21T07:06:56;101953.03;;;5.35;100.00
60817;BME280;51921;51.518;-3.188;2023-11-21T07:09:21;101956.10;;;6.70;100.00
60817;BME280;51921;51.518;-3.188;2023-11-21T07:11:46;101961.95;;;5.30;100.00
60817;BME280;51921;51.518;-3.188;2023-11-21T07:14:13;101969.39;;;4.77;100.00
60817;BME280;51921;51.518;-3.188;2023-11-21T07:16:38;101964.77;;;5.04;100.00
60817;BME280;51921;51.518;-3.188;2023-11-21T07:19:03;101976.46;;;5.07;100.00
60817;BME280;51921;51.518;-3.188;2023-11-21T07:21:28;101983.24;;;6.37;100.00
60817;BME280;51921;51.518;-3.188;2023-11-21T07:23:54;101995.82;;;5.22;100.00
60817;BME280;51921;51.518;-3.188;2023-11-21T07:26:19;102000.14;;;5.54;100.00
60817;BME280;51921;51.518;-3.188;2023-11-21T07:28:45;101996.27;;;5.31;100.00
60817;BME280;51921;51.518;-3.188;2023-11-21T07:31:10;101992.73;;;6.52;100.00
60817;BME280;51921;51.518;-3.188;2023-11-21T07:33:37;101998.44;;;5.11;100.00
60817;BME280;51921;51.518;-3.188;2023-11-21T07:36:02;101995.96;;;5.30;100.00
60817;BME280;51921;51.518;-3.188;2023-11-21T07:38:27;101998.33;;;5.19;100.00
60817;BME280;51921;51.518;-3.188;2023-11-21T07:40:52;101998.43;;;5.64;100.00
60817;BME280;51921;51.518;-3.188;2023-11-21T07:43:18;101995.78;;;5.26;100.00
60817;BME280;51921;51.518;-3.188;2023-11-21T07:45:43;101994.09;;;5.60;100.00
60817;BME280;51921;51.518;-3.188;2023-11-21T07:48:09;102007.27;;;4.89;100.00
60817;BME280;51921;51.518;-3.188;2023-11-21T07:50:34;102015.60;;;4.85;100.00
60817;BME280;51921;51.518;-3.188;2023-11-21T07:53:00;102016.07;;;4.60;100.00
60817;BME280;51921;51.518;-3.188;2023-11-21T07:55:25;102013.06;;;6.66;100.00
60817;BME280;51921;51.518;-3.188;2023-11-21T07:57:51;102016.29;;;7.47;100.00
60817;BME280;51921;51.518;-3.188;2023-11-21T08:00:17;102009.56;;;7.85;100.00
60817;BME280;51921;51.518;-3.188;2023-11-21T08:02:42;102017.33;;;7.17;100.00
60817;BME280;51921;51.518;-3.188;2023-11-21T08:05:08;102019.31;;;8.14;100.00
60817;BME280;51921;51.518;-3.188;2023-11-21T08:07:33;102026.01;;;8.80;100.00
60817;BME280;51921;51.518;-3.188;2023-11-21T08:09:58;102037.66;;;7.36;100.00
60817;BME280;51921;51.518;-3.188;2023-11-21T08:12:24;102036.82;;;6.78;100.00
60817;BME280;51921;51.518;-3.188;2023-11-21T08:14:50;102048.06;;;7.29;100.00
60817;BME280;51921;51.518;-3.188;2023-11-21T08:17:15;102048.23;;;8.54;100.00
60817;BME280;51921;51.518;-3.188;2023-11-21T08:19:40;102052.43;;;9.07;100.00
60817;BME280;51921;51.518;-3.188;2023-11-21T08:22:06;102058.12;;;8.90;100.00
60817;BME280;51921;51.518;-3.188;2023-11-21T08:24:32;102058.70;;;7.77;100.00
60817;BME280;51921;51.518;-3.188;2023-11-21T08:26:57;102071.41;;;8.32;100.00
60817;BME280;51921;51.518;-3.188;2023-11-21T08:29:22;102079.75;;;9.08;100.00
60817;BME280;51921;51.518;-3.188;2023-11-21T08:31:48;102084.96;;;8.36;100.00
60817;BME280;51921;51.518;-3.188;2023-11-21T08:34:13;102092.87;;;5.75;100.00
60817;BME280;51921;51.518;-3.188;2023-11-21T08:36:41;102094.40;;;6.21;100.00
60817;BME280;51921;51.518;-3.188;2023-11-21T08:39:04;102094.26;;;7.01;100.00
60817;BME280;51921;51.518;-3.188;2023-11-21T08:41:30;102103.39;;;7.51;100.00
60817;BME280;51921;51.518;-3.188;2023-11-21T08:43:55;102109.62;;;6.01;100.00
60817;BME280;51921;51.518;-3.188;2023-11-21T08:46:21;102113.57;;;7.22;100.00
60817;BME280;51921;51.518;-3.188;2023-11-21T08:48:46;102120.30;;;6.03;100.00
60817;BME280;51921;51.518;-3.188;2023-11-21T08:51:12;102118.73;;;5.61;100.00
60817;BME280;51921;51.518;-3.188;2023-11-21T08:53:38;102122.51;;;5.10;100.00
60817;BME280;51921;51.518;-3.188;2023-11-21T08:56:03;102125.94;;;5.27;100.00
60817;BME280;51921;51.518;-3.188;2023-11-21T08:58:28;102138.45;;;5.92;100.00
60817;BME280;51921;51.518;-3.188;2023-11-21T09:00:54;102140.46;;;5.11;100.00
60817;BME280;51921;51.518;-3.188;2023-11-21T09:03:19;102140.93;;;4.96;100.00
60817;BME280;51921;51.518;-3.188;2023-11-21T09:05:45;102140.53;;;7.24;100.00
60817;BME280;51921;51.518;-3.188;2023-11-21T09:08:11;102142.03;;;6.65;100.00
60817;BME280;51921;51.518;-3.188;2023-11-21T09:10:37;102143.11;;;5.36;100.00
60817;BME280;51921;51.518;-3.188;2023-11-21T09:13:02;102144.35;;;6.58;100.00
60817;BME280;51921;51.518;-3.188;2023-11-21T09:15:27;102146.76;;;6.81;100.00
60817;BME280;51921;51.518;-3.188;2023-11-21T09:17:52;102152.03;;;5.59;100.00
60817;BME280;51921;51.518;-3.188;2023-11-21T09:20:18;102151.64;;;5.63;100.00
60817;BME280;51921;51.518;-3.188;2023-11-21T09:22:44;102149.90;;;5.77;100.00
60817;BME280;51921;51.518;-3.188;2023-11-21T09:25:09;102153.32;;;6.51;100.00
60817;BME280;51921;51.518;-3.188;2023-11-21T09:27:34;102160.06;;;5.59;100.00
60817;BME280;51921;51.518;-3.188;2023-11-21T09:30:00;102157.96;;;6.35;100.00
60817;BME280;51921;51.518;-3.188;2023-11-21T09:32:25;102153.68;;;6.48;100.00
60817;BME280;51921;51.518;-3.188;2023-11-21T09:34:51;102160.69;;;5.12;100.00
60817;BME280;51921;51.518;-3.188;2023-11-21T09:37:16;102161.22;;;6.21;100.00
60817;BME280;51921;51.518;-3.188;2023-11-21T09:39:42;102153.91;;;5.62;100.00
60817;BME280;51921;51.518;-3.188;2023-11-21T09:42:10;102149.98;;;5.21;100.00
60817;BME280;51921;51.518;-3.188;2023-11-21T09:44:36;102154.90;;;5.41;100.00
60817;BME280;51921;51.518;-3.188;2023-11-21T09:46:59;102150.09;;;5.07;100.00
60817;BME280;51921;51.518;-3.188;2023-11-21T09:49:24;102154.66;;;5.91;100.00
60817;BME280;51921;51.518;-3.188;2023-11-21T09:51:50;102151.31;;;5.21;100.00
60817;BME280;51921;51.518;-3.188;2023-11-21T09:54:15;102155.52;;;5.64;100.00
60817;BME280;51921;51.518;-3.188;2023-11-21T09:56:40;102155.84;;;5.37;100.00
60817;BME280;51921;51.518;-3.188;2023-11-21T09:59:06;102157.55;;;6.45;100.00
60817;BME280;51921;51.518;-3.188;2023-11-21T10:01:31;102163.84;;;6.19;100.00
60817;BME280;51921;51.518;-3.188;2023-11-21T10:03:56;102169.57;;;5.18;100.00
60817;BME280;51921;51.518;-3.188;2023-11-21T10:06:22;102178.45;;;6.59;100.00
60817;BME280;51921;51.518;-3.188;2023-11-21T10:08:48;102185.17;;;6.39;100.00
60817;BME280;51921;51.518;-3.188;2023-11-21T10:11:14;102194.28;;;5.97;100.00
60817;BME280;51921;51.518;-3.188;2023-11-21T10:13:39;102188.44;;;6.95;100.00
60817;BME280;51921;51.518;-3.188;2023-11-21T10:16:06;102192.61;;;6.62;100.00
60817;BME280;51921;51.518;-3.188;2023-11-21T10:18:29;102198.57;;;6.24;100.00
60817;BME280;51921;51.518;-3.188;2023-11-21T10:20:56;102206.89;;;6.55;100.00
60817;BME280;51921;51.518;-3.188;2023-11-21T10:23:21;102206.37;;;7.67;100.00
60817;BME280;51921;51.518;-3.188;2023-11-21T10:25:46;102213.25;;;5.76;100.00
60817;BME280;51921;51.518;-3.188;2023-11-21T10:28:11;102222.34;;;6.50;100.00
60817;BME280;51921;51.518;-3.188;2023-11-21T10:30:38;102221.55;;;6.29;100.00
60817;BME280;51921;51.518;-3.188;2023-11-21T10:33:03;102219.25;;;6.83;100.00
60817;BME280;51921;51.518;-3.188;2023-11-21T10:35:38;102224.29;;;6.05;100.00
60817;BME280;51921;51.518;-3.188;2023-11-21T10:37:59;102228.86;;;6.49;100.00
60817;BME280;51921;51.518;-3.188;2023-11-21T10:40:20;102228.28;;;7.75;100.00
60817;BME280;51921;51.518;-3.188;2023-11-21T10:42:44;102232.46;;;6.68;100.00
60817;BME280;51921;51.518;-3.188;2023-11-21T10:45:10;102232.79;;;6.39;100.00
60817;BME280;51921;51.518;-3.188;2023-11-21T10:47:35;102233.35;;;6.31;100.00
60817;BME280;51921;51.518;-3.188;2023-11-21T10:50:01;102236.23;;;6.18;100.00
60817;BME280;51921;51.518;-3.188;2023-11-21T10:52:27;102238.44;;;7.07;100.00
60817;BME280;51921;51.518;-3.188;2023-11-21T10:54:51;102235.08;;;6.47;100.00
60817;BME280;51921;51.518;-3.188;2023-11-21T10:57:18;102230.58;;;5.06;100.00
60817;BME280;51921;51.518;-3.188;2023-11-21T10:59:47;102226.62;;;6.63;100.00
60817;BME280;51921;51.518;-3.188;2023-11-21T11:02:14;102233.98;;;6.40;100.00
60817;BME280;51921;51.518;-3.188;2023-11-21T11:04:34;102230.03;;;6.40;100.00
60817;BME280;51921;51.518;-3.188;2023-11-21T11:07:02;102232.87;;;7.10;100.00
60817;BME280;51921;51.518;-3.188;2023-11-21T11:09:24;102233.70;;;4.84;100.00
60817;BME280;51921;51.518;-3.188;2023-11-21T11:11:51;102241.70;;;5.50;100.00
60817;BME280;51921;51.518;-3.188;2023-11-21T11:14:15;102241.85;;;6.15;100.00
60817;BME280;51921;51.518;-3.188;2023-11-21T11:16:42;102239.02;;;5.41;100.00
60817;BME280;51921;51.518;-3.188;2023-11-21T11:19:07;102236.78;;;5.56;100.00
60817;BME280;51921;51.518;-3.188;2023-11-21T11:21:43;102240.10;;;5.86;100.00
60817;BME280;51921;51.518;-3.188;2023-11-21T11:24:11;102237.05;;;6.08;100.00
60817;BME280;51921;51.518;-3.188;2023-11-21T11:26:32;102236.16;;;6.03;100.00
60817;BME280;51921;51.518;-3.188;2023-11-21T11:28:57;102235.49;;;5.95;100.00
60817;BME280;51921;51.518;-3.188;2023-11-21T11:31:22;102234.37;;;7.34;100.00
60817;BME280;51921;51.518;-3.188;2023-11-21T11:33:42;102234.26;;;6.64;100.00
60817;BME280;51921;51.518;-3.188;2023-11-21T11:36:10;102238.58;;;5.97;100.00
60817;BME280;51921;51.518;-3.188;2023-11-21T11:38:32;102237.43;;;5.74;100.00
60817;BME280;51921;51.518;-3.188;2023-11-21T11:40:56;102246.33;;;5.39;100.00
60817;BME280;51921;51.518;-3.188;2023-11-21T11:43:27;102248.65;;;5.84;100.00
60817;BME280;51921;51.518;-3.188;2023-11-21T11:45:47;102247.67;;;5.97;100.00
60817;BME280;51921;51.518;-3.188;2023-11-21T11:48:12;102250.57;;;6.31;100.00
60817;BME280;51921;51.518;-3.188;2023-11-21T11:50:42;102256.19;;;6.35;100.00
60817;BME280;51921;51.518;-3.188;2023-11-21T11:53:13;102258.62;;;7.01;100.00
60817;BME280;51921;51.518;-3.188;2023-11-21T11:55:29;102263.13;;;5.79;100.00
60817;BME280;51921;51.518;-3.188;2023-11-21T11:57:55;102270.19;;;5.39;100.00
60817;BME280;51921;51.518;-3.188;2023-11-21T12:00:21;102276.26;;;5.59;100.00
60817;BME280;51921;51.518;-3.188;2023-11-21T12:02:47;102282.95;;;6.41;100.00
60817;BME280;51921;51.518;-3.188;2023-11-21T12:05:12;102285.99;;;7.45;100.00
60817;BME280;51921;51.518;-3.188;2023-11-21T12:07:43;102290.25;;;6.73;100.00
60817;BME280;51921;51.518;-3.188;2023-11-21T12:10:02;102291.86;;;7.05;100.00
60817;BME280;51921;51.518;-3.188;2023-11-21T12:12:27;102289.10;;;6.80;100.00
60817;BME280;51921;51.518;-3.188;2023-11-21T12:14:52;102287.26;;;6.35;100.00
60817;BME280;51921;51.518;-3.188;2023-11-21T12:17:18;102280.35;;;5.71;100.00
60817;BME280;51921;51.518;-3.188;2023-11-21T12:19:44;102293.98;;;5.49;100.00
60817;BME280;51921;51.518;-3.188;2023-11-21T12:22:09;102295.02;;;5.25;100.00
60817;BME280;51921;51.518;-3.188;2023-11-21T12:24:34;102294.46;;;5.33;100.00
60817;BME280;51921;51.518;-3.188;2023-11-21T12:27:00;102301.43;;;5.61;100.00
60817;BME280;51921;51.518;-3.188;2023-11-21T12:29:25;102309.62;;;5.32;100.00